»·PEaware :: N510CJ KDEN-KASE

N510CJ :: KDEN-KASE

FLIGHT INFORMATION

Flight Status: Arrived
Operator: Privately registered:
United States
More flights under this callsign
Pilot: John G. (2195)
Aircraft: CESSNA 510 CITATION MUSTANG
(C510)
More flights by this aircraft type
Origin: KDEN Denver Intl
United States
Destination: KASE Aspen-Pitkin Co/Sardy
United States
More flights between these airports :: More routes between these airports
Route: +CONNR4 DBL
File this flight plan on PilotEdge
Remarks:
Altitude:
(Current/Filed)
18,000ft
Speed:
(Current/Filed)
300kts
Departed: 15-Dec-17 06:11 PM
Arrived: 15-Dec-17 06:45 PM
Distance/Time
Traveled:
109nm/0:34
Distance/Time
To Go:
Arrived

Flight Plot

Page will automatically refresh every two minutes.

Flight plan parsing failed; only flown route is shown


Map Options




Map Legend


Flown Route
Filed Route
Departure Airport
Arrival Airport
Navaid (VOR, NDB)
Fix

Horizontal Profiles

Position Reports

Time Latitude Longitude Heading Altitude Ground
Speed
15-Dec-17 18:01 39.839092 -104.665256 190 5433ft 0kts
15-Dec-17 18:02 39.839092 -104.665256 190 5433ft 0kts
15-Dec-17 18:03 39.839091 -104.665256 190 5433ft 0kts
15-Dec-17 18:04 39.839091 -104.665256 190 5433ft 0kts
15-Dec-17 18:05 39.839091 -104.665256 190 5433ft 0kts
15-Dec-17 18:06 39.839091 -104.665256 190 5433ft 0kts
15-Dec-17 18:07 39.839090 -104.665256 190 5433ft 0kts
15-Dec-17 18:08 39.839090 -104.665256 190 5433ft 0kts
15-Dec-17 18:09 39.839090 -104.665256 190 5433ft 0kts
15-Dec-17 18:10 39.839090 -104.665256 190 5433ft 0kts
15-Dec-17 18:11 39.838995 -104.665209 126 5433ft 4kts
15-Dec-17 18:12 39.840074 -104.663931 67 5433ft 10kts
15-Dec-17 18:13 39.846766 -104.662456 359 5433ft 35kts
15-Dec-17 18:14 39.853702 -104.662371 1 5433ft 20kts
15-Dec-17 18:15 39.858776 -104.662332 358 5433ft 19kts
15-Dec-17 18:16 39.861052 -104.661158 86 5433ft 10kts
15-Dec-17 18:17 39.846240 -104.660155 180 5731ft 111kts
15-Dec-17 18:18 39.807356 -104.665733 203 7434ft 167kts
15-Dec-17 18:19 39.770066 -104.700412 221 9868ft 166kts
15-Dec-17 18:20 39.755849 -104.755750 269 11833ft 181kts
15-Dec-17 18:21 39.753615 -104.824158 278 13974ft 189kts
15-Dec-17 18:22 39.756890 -104.893673 276 16125ft 195kts
15-Dec-17 18:23 39.765072 -104.963470 285 18114ft 197kts
15-Dec-17 18:24 39.775125 -105.035265 284 19856ft 208kts
15-Dec-17 18:25 39.785995 -105.121035 283 20018ft 272kts
15-Dec-17 18:26 39.796286 -105.222475 269 19998ft 292kts
15-Dec-17 18:27 39.772306 -105.325155 256 20065ft 297kts
15-Dec-17 18:28 39.748577 -105.427611 259 20120ft 295kts
15-Dec-17 18:29 39.726397 -105.530323 259 20175ft 296kts
15-Dec-17 18:30 39.705009 -105.633476 260 20226ft 294kts
15-Dec-17 18:31 39.689700 -105.737178 266 20237ft 292kts
15-Dec-17 18:32 39.679105 -105.841371 266 20249ft 292kts
15-Dec-17 18:33 39.667858 -105.945986 266 19421ft 290kts
15-Dec-17 18:34 39.656472 -106.046371 266 17513ft 259kts
15-Dec-17 18:35 39.646612 -106.133882 266 16050ft 240kts
15-Dec-17 18:36 39.636592 -106.222515 264 15999ft 257kts
15-Dec-17 18:37 39.626280 -106.311868 266 15992ft 242kts
15-Dec-17 18:38 39.602009 -106.395585 250 16004ft 253kts
15-Dec-17 18:39 39.573461 -106.479281 251 16009ft 255kts
15-Dec-17 18:40 39.545602 -106.564757 251 16009ft 259kts
15-Dec-17 18:41 39.517775 -106.651134 252 16010ft 261kts
15-Dec-17 18:42 39.490526 -106.736217 252 16010ft 248kts
15-Dec-17 18:43 39.465900 -106.812205 252 15772ft 219kts
15-Dec-17 18:44 39.458267 -106.890447 277 14588ft 225kts
15-Dec-17 18:45 39.464683 -106.970341 265 13863ft 219kts
15-Dec-17 18:46 39.417091 -106.994510 146 13754ft 227kts
15-Dec-17 18:47 39.374105 -106.938811 153 12909ft 200kts
15-Dec-17 18:48 39.320898 -106.915071 162 11356ft 204kts
15-Dec-17 18:49 39.274149 -106.893601 157 9465ft 159kts
15-Dec-17 18:50 39.238629 -106.876228 160 7880ft 104kts
15-Dec-17 18:51 39.225692 -106.869943 118 7738ft 6kts
15-Dec-17 18:52 39.226007 -106.869112 358 7738ft 5kts
15-Dec-17 18:53 39.226832 -106.869043 60 7738ft 0kts
15-Dec-17 18:54 39.226832 -106.869043 60 7738ft 0kts

Navigation Log

Ident Type
Flight plan parsing failed, navigation log unavailable